sensor_id;sensor_type;location;lat;lon;timestamp;pressure;altitude;pressure_sealevel;temperature;humidity
17615;BME280;8926;49.720;6.576;2022-11-06T00:01:46;100045.34;;;9.81;85.15
17615;BME280;8926;49.720;6.576;2022-11-06T00:04:11;100049.72;;;9.81;84.84
17615;BME280;8926;49.720;6.576;2022-11-06T00:06:37;100042.94;;;9.77;85.16
17615;BME280;8926;49.720;6.576;2022-11-06T00:09:18;100035.88;;;9.79;85.08
17615;BME280;8926;49.720;6.576;2022-11-06T00:11:45;100030.88;;;9.74;84.93
17615;BME280;8926;49.720;6.576;2022-11-06T00:14:11;100026.44;;;9.76;85.15
17615;BME280;8926;49.720;6.576;2022-11-06T00:16:38;100021.44;;;9.72;85.36
17615;BME280;8926;49.720;6.576;2022-11-06T00:19:05;100018.75;;;9.73;85.55
17615;BME280;8926;49.720;6.576;2022-11-06T00:21:30;100020.53;;;9.73;85.61
17615;BME280;8926;49.720;6.576;2022-11-06T00:23:57;100006.56;;;9.74;85.46
17615;BME280;8926;49.720;6.576;2022-11-06T00:26:25;100020.38;;;9.76;85.45
17615;BME280;8926;49.720;6.576;2022-11-06T00:28:51;100022.22;;;9.74;85.68
17615;BME280;8926;49.720;6.576;2022-11-06T00:31:20;100018.41;;;9.81;84.77
17615;BME280;8926;49.720;6.576;2022-11-06T00:33:46;100010.09;;;9.73;84.69
17615;BME280;8926;49.720;6.576;2022-11-06T00:36:15;100022.16;;;9.75;84.32
17615;BME280;8926;49.720;6.576;2022-11-06T00:38:41;100027.59;;;9.71;84.85
17615;BME280;8926;49.720;6.576;2022-11-06T00:41:09;100030.19;;;9.71;85.04
17615;BME280;8926;49.720;6.576;2022-11-06T00:43:35;100025.03;;;9.69;84.45
17615;BME280;8926;49.720;6.576;2022-11-06T00:46:01;100033.22;;;9.62;84.94
17615;BME280;8926;49.720;6.576;2022-11-06T00:48:27;100038.44;;;9.62;84.92
17615;BME280;8926;49.720;6.576;2022-11-06T00:50:52;100031.56;;;9.61;85.19
17615;BME280;8926;49.720;6.576;2022-11-06T00:53:18;100032.63;;;9.57;84.67
17615;BME280;8926;49.720;6.576;2022-11-06T00:55:43;100035.53;;;9.50;84.70
17615;BME280;8926;49.720;6.576;2022-11-06T00:58:08;100039.34;;;9.43;84.26
17615;BME280;8926;49.720;6.576;2022-11-06T01:00:33;100034.13;;;9.43;84.60
17615;BME280;8926;49.720;6.576;2022-11-06T01:02:59;100022.00;;;9.42;84.92
17615;BME280;8926;49.720;6.576;2022-11-06T01:05:24;100013.25;;;9.43;85.05
17615;BME280;8926;49.720;6.576;2022-11-06T01:07:49;100018.63;;;9.40;84.70
17615;BME280;8926;49.720;6.576;2022-11-06T01:10:14;100016.09;;;9.39;84.61
17615;BME280;8926;49.720;6.576;2022-11-06T01:12:40;100006.63;;;9.36;85.12
17615;BME280;8926;49.720;6.576;2022-11-06T01:15:05;100001.53;;;9.35;84.72
17615;BME280;8926;49.720;6.576;2022-11-06T01:17:31;100007.66;;;9.34;85.04
17615;BME280;8926;49.720;6.576;2022-11-06T01:19:56;100006.50;;;9.39;85.45
17615;BME280;8926;49.720;6.576;2022-11-06T01:22:21;100004.81;;;9.38;84.80
17615;BME280;8926;49.720;6.576;2022-11-06T01:24:46;99994.22;;;9.41;84.84
17615;BME280;8926;49.720;6.576;2022-11-06T01:27:12;99989.88;;;9.42;85.13
17615;BME280;8926;49.720;6.576;2022-11-06T01:29:37;99989.16;;;9.38;84.85
17615;BME280;8926;49.720;6.576;2022-11-06T01:32:03;99994.38;;;9.38;84.45
17615;BME280;8926;49.720;6.576;2022-11-06T01:34:28;99995.53;;;9.33;85.05
17615;BME280;8926;49.720;6.576;2022-11-06T01:36:53;99996.38;;;9.33;85.30
17615;BME280;8926;49.720;6.576;2022-11-06T01:39:18;99998.81;;;9.36;84.85
17615;BME280;8926;49.720;6.576;2022-11-06T01:41:49;99996.00;;;9.41;85.10
17615;BME280;8926;49.720;6.576;2022-11-06T01:46:56;99991.78;;;9.38;84.33
17615;BME280;8926;49.720;6.576;2022-11-06T01:49:21;99997.91;;;9.37;84.64
17615;BME280;8926;49.720;6.576;2022-11-06T01:51:50;99993.84;;;9.32;85.02
17615;BME280;8926;49.720;6.576;2022-11-06T01:54:19;99990.25;;;9.34;84.61
17615;BME280;8926;49.720;6.576;2022-11-06T01:56:47;99984.94;;;9.36;84.63
17615;BME280;8926;49.720;6.576;2022-11-06T01:59:15;99985.78;;;9.36;84.99
17615;BME280;8926;49.720;6.576;2022-11-06T02:01:41;99978.13;;;9.33;84.27
17615;BME280;8926;49.720;6.576;2022-11-06T02:04:12;99971.38;;;9.29;84.65
17615;BME280;8926;49.720;6.576;2022-11-06T02:06:39;99967.91;;;9.29;85.08
17615;BME280;8926;49.720;6.576;2022-11-06T02:09:04;99970.59;;;9.27;84.81
17615;BME280;8926;49.720;6.576;2022-11-06T02:11:49;99967.22;;;9.25;85.36
17615;BME280;8926;49.720;6.576;2022-11-06T02:14:31;99959.47;;;9.24;84.48
17615;BME280;8926;49.720;6.576;2022-11-06T02:17:01;99949.34;;;9.17;84.26
17615;BME280;8926;49.720;6.576;2022-11-06T02:19:59;99959.06;;;9.14;85.25
17615;BME280;8926;49.720;6.576;2022-11-06T02:22:39;99963.66;;;9.09;84.63
17615;BME280;8926;49.720;6.576;2022-11-06T02:25:36;99967.47;;;9.02;84.89
17615;BME280;8926;49.720;6.576;2022-11-06T02:28:09;99958.94;;;8.98;85.26
17615;BME280;8926;49.720;6.576;2022-11-06T02:30:42;99956.53;;;8.94;85.07
17615;BME280;8926;49.720;6.576;2022-11-06T02:33:12;99955.84;;;8.90;85.37
17615;BME280;8926;49.720;6.576;2022-11-06T02:35:43;99944.56;;;8.90;85.37
17615;BME280;8926;49.720;6.576;2022-11-06T02:38:15;99934.16;;;8.90;85.31
17615;BME280;8926;49.720;6.576;2022-11-06T02:40:46;99923.88;;;8.87;85.55
17615;BME280;8926;49.720;6.576;2022-11-06T02:43:14;99928.31;;;8.84;85.89
17615;BME280;8926;49.720;6.576;2022-11-06T02:45:44;99925.69;;;8.84;85.80
17615;BME280;8926;49.720;6.576;2022-11-06T02:48:13;99932.00;;;8.80;85.30
17615;BME280;8926;49.720;6.576;2022-11-06T02:50:44;99924.00;;;8.83;85.55
17615;BME280;8926;49.720;6.576;2022-11-06T02:53:12;99925.88;;;8.81;85.66
17615;BME280;8926;49.720;6.576;2022-11-06T02:55:46;99905.16;;;8.78;85.52
17615;BME280;8926;49.720;6.576;2022-11-06T02:58:18;99910.38;;;8.78;85.88
17615;BME280;8926;49.720;6.576;2022-11-06T03:00:50;99908.69;;;8.77;84.81
17615;BME280;8926;49.720;6.576;2022-11-06T03:03:24;99914.03;;;8.74;84.61
17615;BME280;8926;49.720;6.576;2022-11-06T03:05:56;99918.63;;;8.69;85.43
17615;BME280;8926;49.720;6.576;2022-11-06T03:08:32;99920.50;;;8.66;85.12
17615;BME280;8926;49.720;6.576;2022-11-06T03:11:13;99916.28;;;8.63;84.91
17615;BME280;8926;49.720;6.576;2022-11-06T03:13:50;99914.91;;;8.56;85.29
17615;BME280;8926;49.720;6.576;2022-11-06T03:22:03;99943.69;;;8.53;85.36
17615;BME280;8926;49.720;6.576;2022-11-06T03:27:41;99942.63;;;8.57;85.48
17615;BME280;8926;49.720;6.576;2022-11-06T03:30:12;99941.06;;;8.53;85.69
17615;BME280;8926;49.720;6.576;2022-11-06T03:32:58;99942.75;;;8.54;85.12
17615;BME280;8926;49.720;6.576;2022-11-06T03:35:44;99946.28;;;8.53;85.23
17615;BME280;8926;49.720;6.576;2022-11-06T03:40:56;99944.59;;;8.52;85.06
17615;BME280;8926;49.720;6.576;2022-11-06T03:43:25;99949.03;;;8.50;85.20
17615;BME280;8926;49.720;6.576;2022-11-06T03:45:54;99949.78;;;8.52;85.51
17615;BME280;8926;49.720;6.576;2022-11-06T03:48:32;99956.81;;;8.50;84.88
17615;BME280;8926;49.720;6.576;2022-11-06T03:51:06;99960.59;;;8.43;85.19
17615;BME280;8926;49.720;6.576;2022-11-06T03:53:52;99955.28;;;8.46;84.46
17615;BME280;8926;49.720;6.576;2022-11-06T03:56:37;99945.13;;;8.40;84.97
17615;BME280;8926;49.720;6.576;2022-11-06T03:59:06;99945.97;;;8.40;85.00
17615;BME280;8926;49.720;6.576;2022-11-06T04:01:36;99942.72;;;8.35;85.44
17615;BME280;8926;49.720;6.576;2022-11-06T04:04:18;99946.16;;;8.36;84.89
17615;BME280;8926;49.720;6.576;2022-11-06T04:06:53;99945.25;;;8.37;85.63
17615;BME280;8926;49.720;6.576;2022-11-06T04:09:21;99946.44;;;8.30;85.11
17615;BME280;8926;49.720;6.576;2022-11-06T04:12:09;99950.84;;;8.28;85.30
17615;BME280;8926;49.720;6.576;2022-11-06T04:14:57;99939.81;;;8.23;85.04
17615;BME280;8926;49.720;6.576;2022-11-06T04:17:25;99936.28;;;8.24;85.67
17615;BME280;8926;49.720;6.576;2022-11-06T04:19:56;99929.38;;;8.23;85.85
17615;BME280;8926;49.720;6.576;2022-11-06T04:22:33;99939.88;;;8.21;85.63
17615;BME280;8926;49.720;6.576;2022-11-06T04:28:33;99927.50;;;8.26;85.33
17615;BME280;8926;49.720;6.576;2022-11-06T04:31:08;99924.97;;;8.25;85.38
17615;BME280;8926;49.720;6.576;2022-11-06T04:33:56;99914.56;;;8.25;85.42
17615;BME280;8926;49.720;6.576;2022-11-06T04:36:28;99909.34;;;8.25;85.56
17615;BME280;8926;49.720;6.576;2022-11-06T04:39:08;99910.25;;;8.24;85.63
17615;BME280;8926;49.720;6.576;2022-11-06T04:41:46;99910.19;;;8.25;85.65
17615;BME280;8926;49.720;6.576;2022-11-06T04:47:02;99894.00;;;8.18;85.04
17615;BME280;8926;49.720;6.576;2022-11-06T04:49:31;99878.38;;;8.18;84.87
17615;BME280;8926;49.720;6.576;2022-11-06T04:51:58;99888.09;;;8.15;85.36
17615;BME280;8926;49.720;6.576;2022-11-06T04:54:25;99897.78;;;8.11;85.48
17615;BME280;8926;49.720;6.576;2022-11-06T04:56:56;99896.09;;;8.10;85.17
17615;BME280;8926;49.720;6.576;2022-11-06T04:59:22;99887.50;;;8.08;84.90
17615;BME280;8926;49.720;6.576;2022-11-06T05:01:48;99880.78;;;8.04;85.13
17615;BME280;8926;49.720;6.576;2022-11-06T05:04:13;99879.88;;;8.05;85.33
17615;BME280;8926;49.720;6.576;2022-11-06T05:06:38;99872.88;;;8.06;85.75
17615;BME280;8926;49.720;6.576;2022-11-06T05:09:04;99866.84;;;8.05;84.94
17615;BME280;8926;49.720;6.576;2022-11-06T05:11:29;99872.06;;;8.05;85.18
17615;BME280;8926;49.720;6.576;2022-11-06T05:13:54;99859.97;;;8.04;85.51
17615;BME280;8926;49.720;6.576;2022-11-06T05:16:19;99848.78;;;8.02;84.95
17615;BME280;8926;49.720;6.576;2022-11-06T05:18:45;99844.47;;;8.01;85.10
17615;BME280;8926;49.720;6.576;2022-11-06T05:21:10;99827.06;;;8.03;84.93
17615;BME280;8926;49.720;6.576;2022-11-06T05:23:54;99808.06;;;8.01;84.58
17615;BME280;8926;49.720;6.576;2022-11-06T05:26:19;99801.31;;;7.97;84.96
17615;BME280;8926;49.720;6.576;2022-11-06T05:28:44;99803.13;;;7.95;84.89
17615;BME280;8926;49.720;6.576;2022-11-06T05:31:09;99798.91;;;7.93;84.89
17615;BME280;8926;49.720;6.576;2022-11-06T05:33:35;99788.06;;;7.83;84.86
17615;BME280;8926;49.720;6.576;2022-11-06T05:36:04;99780.31;;;7.81;85.35
17615;BME280;8926;49.720;6.576;2022-11-06T05:38:30;99776.13;;;7.79;85.49
17615;BME280;8926;49.720;6.576;2022-11-06T05:40:55;99781.47;;;7.76;85.57
17615;BME280;8926;49.720;6.576;2022-11-06T05:43:21;99772.91;;;7.74;85.44
17615;BME280;8926;49.720;6.576;2022-11-06T05:45:46;99776.66;;;7.67;85.55
17615;BME280;8926;49.720;6.576;2022-11-06T05:48:11;99776.81;;;7.64;85.80
17615;BME280;8926;49.720;6.576;2022-11-06T05:50:36;99783.81;;;7.62;85.37
17615;BME280;8926;49.720;6.576;2022-11-06T05:53:02;99778.63;;;7.62;86.69
17615;BME280;8926;49.720;6.576;2022-11-06T05:55:27;99781.09;;;7.65;86.45
17615;BME280;8926;49.720;6.576;2022-11-06T05:57:53;99768.22;;;7.62;86.24
17615;BME280;8926;49.720;6.576;2022-11-06T06:00:18;99771.59;;;7.64;86.00
17615;BME280;8926;49.720;6.576;2022-11-06T06:02:43;99774.97;;;7.66;86.21
17615;BME280;8926;49.720;6.576;2022-11-06T06:05:09;99789.03;;;7.62;85.90
17615;BME280;8926;49.720;6.576;2022-11-06T06:07:34;99803.06;;;7.58;85.72
17615;BME280;8926;49.720;6.576;2022-11-06T06:10:00;99808.56;;;7.52;85.80
17615;BME280;8926;49.720;6.576;2022-11-06T06:12:25;99817.38;;;7.47;86.03
17615;BME280;8926;49.720;6.576;2022-11-06T06:14:52;99816.53;;;7.47;86.35
17615;BME280;8926;49.720;6.576;2022-11-06T06:17:17;99817.25;;;7.51;86.77
17615;BME280;8926;49.720;6.576;2022-11-06T06:19:43;99819.56;;;7.57;86.44
17615;BME280;8926;49.720;6.576;2022-11-06T06:22:08;99824.81;;;7.55;85.90
17615;BME280;8926;49.720;6.576;2022-11-06T06:24:33;99815.28;;;7.56;86.25
17615;BME280;8926;49.720;6.576;2022-11-06T06:26:59;99811.75;;;7.57;85.48
17615;BME280;8926;49.720;6.576;2022-11-06T06:29:25;99806.44;;;7.60;85.75
17615;BME280;8926;49.720;6.576;2022-11-06T06:31:50;99810.84;;;7.58;85.73
17615;BME280;8926;49.720;6.576;2022-11-06T06:34:15;99813.31;;;7.61;85.47
17615;BME280;8926;49.720;6.576;2022-11-06T06:36:40;99807.47;;;7.56;85.61
17615;BME280;8926;49.720;6.576;2022-11-06T06:39:06;99808.38;;;7.55;85.83
17615;BME280;8926;49.720;6.576;2022-11-06T06:41:31;99818.78;;;7.55;85.99
17615;BME280;8926;49.720;6.576;2022-11-06T06:43:57;99815.44;;;7.53;85.37
17615;BME280;8926;49.720;6.576;2022-11-06T06:46:22;99816.41;;;7.50;85.55
17615;BME280;8926;49.720;6.576;2022-11-06T06:48:48;99810.50;;;7.46;85.21
17615;BME280;8926;49.720;6.576;2022-11-06T06:51:13;99807.00;;;7.47;85.66
17615;BME280;8926;49.720;6.576;2022-11-06T06:53:38;99803.59;;;7.45;85.08
17615;BME280;8926;49.720;6.576;2022-11-06T06:56:04;99791.72;;;7.40;85.07
17615;BME280;8926;49.720;6.576;2022-11-06T06:58:30;99792.50;;;7.42;85.74
17615;BME280;8926;49.720;6.576;2022-11-06T07:00:59;99791.53;;;7.44;85.68
17615;BME280;8926;49.720;6.576;2022-11-06T07:03:26;99785.91;;;7.54;85.57
17615;BME280;8926;49.720;6.576;2022-11-06T07:05:52;99783.69;;;7.65;85.61
17615;BME280;8926;49.720;6.576;2022-11-06T07:08:17;99773.88;;;7.71;85.73
17615;BME280;8926;49.720;6.576;2022-11-06T07:10:42;99768.94;;;7.84;84.63
17615;BME280;8926;49.720;6.576;2022-11-06T07:13:08;99786.94;;;7.89;84.51
17615;BME280;8926;49.720;6.576;2022-11-06T07:15:33;99789.34;;;7.93;83.94
17615;BME280;8926;49.720;6.576;2022-11-06T07:18:03;99781.28;;;7.99;83.77
17615;BME280;8926;49.720;6.576;2022-11-06T07:20:29;99792.00;;;8.10;83.52
17615;BME280;8926;49.720;6.576;2022-11-06T07:22:54;99791.75;;;8.16;83.45
17615;BME280;8926;49.720;6.576;2022-11-06T07:25:20;99792.25;;;8.25;83.26
17615;BME280;8926;49.720;6.576;2022-11-06T07:27:45;99779.59;;;8.36;83.74
17615;BME280;8926;49.720;6.576;2022-11-06T07:30:11;99781.91;;;8.42;83.06
17615;BME280;8926;49.720;6.576;2022-11-06T07:32:36;99772.06;;;8.48;83.68
17615;BME280;8926;49.720;6.576;2022-11-06T07:35:01;99773.19;;;8.60;83.00
17615;BME280;8926;49.720;6.576;2022-11-06T07:37:27;99767.56;;;8.87;83.75
17615;BME280;8926;49.720;6.576;2022-11-06T07:39:52;99764.53;;;8.78;80.26
17615;BME280;8926;49.720;6.576;2022-11-06T07:42:17;99762.34;;;8.87;80.83
17615;BME280;8926;49.720;6.576;2022-11-06T07:44:43;99756.84;;;8.93;80.44
17615;BME280;8926;49.720;6.576;2022-11-06T07:47:08;99753.03;;;9.00;80.63
17615;BME280;8926;49.720;6.576;2022-11-06T07:49:33;99741.13;;;9.11;80.05
17615;BME280;8926;49.720;6.576;2022-11-06T07:51:59;99737.75;;;9.27;79.31
17615;BME280;8926;49.720;6.576;2022-11-06T07:54:24;99733.66;;;9.38;78.81
17615;BME280;8926;49.720;6.576;2022-11-06T07:56:49;99726.28;;;9.46;78.35
17615;BME280;8926;49.720;6.576;2022-11-06T07:59:14;99712.94;;;9.52;78.26
17615;BME280;8926;49.720;6.576;2022-11-06T08:01:40;99705.13;;;9.68;77.42
17615;BME280;8926;49.720;6.576;2022-11-06T08:04:05;99709.00;;;9.77;76.54
17615;BME280;8926;49.720;6.576;2022-11-06T08:06:30;99703.97;;;10.37;76.52
17615;BME280;8926;49.720;6.576;2022-11-06T08:08:55;99722.59;;;10.31;74.49
17615;BME280;8926;49.720;6.576;2022-11-06T08:11:21;99728.44;;;10.18;75.83
17615;BME280;8926;49.720;6.576;2022-11-06T08:13:46;99726.88;;;10.00;75.92
17615;BME280;8926;49.720;6.576;2022-11-06T08:16:13;99718.09;;;10.01;76.29
17615;BME280;8926;49.720;6.576;2022-11-06T08:18:39;99710.03;;;10.06;75.69
17615;BME280;8926;49.720;6.576;2022-11-06T08:21:06;99711.72;;;10.23;74.80
17615;BME280;8926;49.720;6.576;2022-11-06T08:23:32;99719.19;;;10.44;75.09
17615;BME280;8926;49.720;6.576;2022-11-06T08:26:00;99699.28;;;10.87;73.34
17615;BME280;8926;49.720;6.576;2022-11-06T08:28:27;99701.69;;;10.76;72.80
17615;BME280;8926;49.720;6.576;2022-11-06T08:30:53;99694.50;;;11.38;71.52
17615;BME280;8926;49.720;6.576;2022-11-06T08:33:20;99691.72;;;12.38;68.90
17615;BME280;8926;49.720;6.576;2022-11-06T08:35:46;99676.13;;;13.39;66.26
17615;BME280;8926;49.720;6.576;2022-11-06T08:38:11;99666.94;;;14.07;64.52
17615;BME280;8926;49.720;6.576;2022-11-06T08:40:37;99667.38;;;13.77;62.13
17615;BME280;8926;49.720;6.576;2022-11-06T08:43:06;99670.84;;;13.65;61.21
17615;BME280;8926;49.720;6.576;2022-11-06T08:45:36;99663.50;;;13.57;61.96
17615;BME280;8926;49.720;6.576;2022-11-06T08:48:03;99669.63;;;13.94;61.08
17615;BME280;8926;49.720;6.576;2022-11-06T08:50:30;99667.56;;;14.10;60.82
17615;BME280;8926;49.720;6.576;2022-11-06T08:52:56;99674.31;;;14.73;59.93
17615;BME280;8926;49.720;6.576;2022-11-06T08:55:22;99661.16;;;14.73;58.39
17615;BME280;8926;49.720;6.576;2022-11-06T08:57:47;99638.84;;;13.96;60.09
17615;BME280;8926;49.720;6.576;2022-11-06T09:00:13;99632.91;;;12.94;61.73
17615;BME280;8926;49.720;6.576;2022-11-06T09:02:39;99629.88;;;12.48;64.52
17615;BME280;8926;49.720;6.576;2022-11-06T09:05:05;99631.97;;;12.03;65.54
17615;BME280;8926;49.720;6.576;2022-11-06T09:07:30;99633.38;;;11.68;66.28
17615;BME280;8926;49.720;6.576;2022-11-06T09:09:55;99623.84;;;11.52;67.93
17615;BME280;8926;49.720;6.576;2022-11-06T09:12:20;99619.19;;;11.43;68.52
17615;BME280;8926;49.720;6.576;2022-11-06T09:14:46;99620.22;;;11.41;68.37
17615;BME280;8926;49.720;6.576;2022-11-06T09:17:11;99618.09;;;11.33;69.39
17615;BME280;8926;49.720;6.576;2022-11-06T09:19:36;99608.00;;;11.27;70.01
17615;BME280;8926;49.720;6.576;2022-11-06T09:22:02;99599.50;;;11.38;69.83
17615;BME280;8926;49.720;6.576;2022-11-06T09:24:28;99594.91;;;11.41;69.83
17615;BME280;8926;49.720;6.576;2022-11-06T09:26:53;99606.66;;;11.48;69.76
17615;BME280;8926;49.720;6.576;2022-11-06T09:29:18;99615.44;;;11.47;69.43
17615;BME280;8926;49.720;6.576;2022-11-06T09:31:44;99619.41;;;11.40;69.68
17615;BME280;8926;49.720;6.576;2022-11-06T09:34:09;99620.69;;;11.33;69.83
17615;BME280;8926;49.720;6.576;2022-11-06T09:36:35;99612.38;;;11.27;70.19
17615;BME280;8926;49.720;6.576;2022-11-06T09:39:00;99600.84;;;11.16;70.30
17615;BME280;8926;49.720;6.576;2022-11-06T09:41:54;99594.94;;;11.13;70.64
17615;BME280;8926;49.720;6.576;2022-11-06T09:44:41;99595.31;;;11.07;70.82
17615;BME280;8926;49.720;6.576;2022-11-06T09:47:17;99594.38;;;10.94;70.58
17615;BME280;8926;49.720;6.576;2022-11-06T09:49:54;99602.28;;;10.92;71.19
17615;BME280;8926;49.720;6.576;2022-11-06T09:52:34;99601.84;;;10.85;71.34
17615;BME280;8926;49.720;6.576;2022-11-06T09:55:09;99605.03;;;10.91;71.34
17615;BME280;8926;49.720;6.576;2022-11-06T09:57:43;99601.19;;;10.82;71.70
17615;BME280;8926;49.720;6.576;2022-11-06T10:00:12;99599.78;;;10.76;72.36
17615;BME280;8926;49.720;6.576;2022-11-06T10:02:48;99591.56;;;10.82;72.51
17615;BME280;8926;49.720;6.576;2022-11-06T10:05:25;99582.44;;;10.90;72.18
17615;BME280;8926;49.720;6.576;2022-11-06T10:07:54;99577.75;;;10.95;71.82
17615;BME280;8926;49.720;6.576;2022-11-06T10:10:27;99570.94;;;10.92;71.86
17615;BME280;8926;49.720;6.576;2022-11-06T10:15:58;99568.63;;;11.16;71.57
17615;BME280;8926;49.720;6.576;2022-11-06T10:21:42;99566.94;;;11.15;71.06
17615;BME280;8926;49.720;6.576;2022-11-06T10:24:29;99557.41;;;11.14;70.97
17615;BME280;8926;49.720;6.576;2022-11-06T10:26:57;99550.88;;;11.07;70.74
17615;BME280;8926;49.720;6.576;2022-11-06T10:32:07;99551.81;;;11.06;72.04
17615;BME280;8926;49.720;6.576;2022-11-06T10:34:44;99552.94;;;11.16;72.11
17615;BME280;8926;49.720;6.576;2022-11-06T10:39:42;99542.63;;;11.27;71.91
17615;BME280;8926;49.720;6.576;2022-11-06T10:42:19;99529.16;;;11.33;71.65
17615;BME280;8926;49.720;6.576;2022-11-06T10:45:21;99522.31;;;11.45;71.17
17615;BME280;8926;49.720;6.576;2022-11-06T10:47:51;99511.84;;;11.45;71.07
17615;BME280;8926;49.720;6.576;2022-11-06T10:50:18;99502.72;;;11.65;71.07
17615;BME280;8926;49.720;6.576;2022-11-06T10:53:31;99496.31;;;11.83;70.05
17615;BME280;8926;49.720;6.576;2022-11-06T10:56:09;99488.00;;;12.29;69.57
17615;BME280;8926;49.720;6.576;2022-11-06T10:58:39;99473.00;;;12.69;66.25
17615;BME280;8926;49.720;6.576;2022-11-06T11:01:08;99477.56;;;12.90;66.46
17615;BME280;8926;49.720;6.576;2022-11-06T11:03:39;99479.00;;;13.44;65.32
17615;BME280;8926;49.720;6.576;2022-11-06T11:06:06;99466.84;;;13.78;64.24
17615;BME280;8926;49.720;6.576;2022-11-06T11:08:39;99460.09;;;13.86;63.72
17615;BME280;8926;49.720;6.576;2022-11-06T11:16:22;99453.09;;;13.03;65.13
17615;BME280;8926;49.720;6.576;2022-11-06T11:18:49;99446.13;;;12.90;66.03
17615;BME280;8926;49.720;6.576;2022-11-06T11:24:05;99432.13;;;12.66;66.30
17615;BME280;8926;49.720;6.576;2022-11-06T11:26:31;99437.47;;;12.52;65.92
17615;BME280;8926;49.720;6.576;2022-11-06T11:29:00;99423.25;;;12.43;65.90
17615;BME280;8926;49.720;6.576;2022-11-06T11:31:31;99419.06;;;12.41;65.73
17615;BME280;8926;49.720;6.576;2022-11-06T11:34:00;99406.47;;;12.46;65.68
17615;BME280;8926;49.720;6.576;2022-11-06T11:36:46;99403.19;;;12.55;65.29
17615;BME280;8926;49.720;6.576;2022-11-06T11:39:14;99400.16;;;12.61;64.73
17615;BME280;8926;49.720;6.576;2022-11-06T11:41:39;99402.03;;;12.72;64.75
17615;BME280;8926;49.720;6.576;2022-11-06T11:44:18;99394.63;;;12.89;63.92
17615;BME280;8926;49.720;6.576;2022-11-06T11:46:49;99402.50;;;12.89;64.30
17615;BME280;8926;49.720;6.576;2022-11-06T11:49:31;99401.97;;;12.84;63.68
17615;BME280;8926;49.720;6.576;2022-11-06T11:51:59;99397.63;;;12.72;63.95
17615;BME280;8926;49.720;6.576;2022-11-06T11:54:29;99395.75;;;12.62;63.94
17615;BME280;8926;49.720;6.576;2022-11-06T11:57:01;99377.50;;;12.60;64.56
17615;BME280;8926;49.720;6.576;2022-11-06T11:59:36;99374.59;;;12.52;64.30
17615;BME280;8926;49.720;6.576;2022-11-06T12:02:21;99365.25;;;12.48;64.83
17615;BME280;8926;49.720;6.576;2022-11-06T12:04:56;99346.75;;;12.38;64.74
17615;BME280;8926;49.720;6.576;2022-11-06T12:09:51;99315.56;;;12.22;64.78
17615;BME280;8926;49.720;6.576;2022-11-06T12:12:21;99317.91;;;12.14;63.80
17615;BME280;8926;49.720;6.576;2022-11-06T12:15:03;99317.38;;;12.09;64.91
17615;BME280;8926;49.720;6.576;2022-11-06T12:17:29;99320.31;;;12.17;65.63
17615;BME280;8926;49.720;6.576;2022-11-06T12:19:57;99314.13;;;12.18;65.96
17615;BME280;8926;49.720;6.576;2022-11-06T12:22:30;99312.63;;;12.27;65.80
17615;BME280;8926;49.720;6.576;2022-11-06T12:25:12;99317.00;;;12.27;64.98
17615;BME280;8926;49.720;6.576;2022-11-06T12:27:43;99309.16;;;12.27;64.84
17615;BME280;8926;49.720;6.576;2022-11-06T12:30:13;99297.53;;;12.31;65.18
17615;BME280;8926;49.720;6.576;2022-11-06T12:33:01;99306.44;;;12.28;64.80
17615;BME280;8926;49.720;6.576;2022-11-06T12:38:40;99279.91;;;12.33;65.48
17615;BME280;8926;49.720;6.576;2022-11-06T12:43:41;99287.03;;;12.31;65.27
17615;BME280;8926;49.720;6.576;2022-11-06T12:46:23;99275.31;;;12.23;65.01
17615;BME280;8926;49.720;6.576;2022-11-06T12:49:29;99277.22;;;12.21;65.55
17615;BME280;8926;49.720;6.576;2022-11-06T12:57:30;99295.72;;;11.95;65.18
17615;BME280;8926;49.720;6.576;2022-11-06T13:05:37;99269.56;;;11.82;66.56
17615;BME280;8926;49.720;6.576;2022-11-06T13:08:30;99263.03;;;11.75;65.94
17615;BME280;8926;49.720;6.576;2022-11-06T13:19:19;99246.31;;;11.77;66.19
17615;BME280;8926;49.720;6.576;2022-11-06T13:21:55;99245.88;;;11.71;66.36
17615;BME280;8926;49.720;6.576;2022-11-06T13:24:39;99239.09;;;11.68;66.13
17615;BME280;8926;49.720;6.576;2022-11-06T13:27:16;99235.00;;;11.64;66.30
17615;BME280;8926;49.720;6.576;2022-11-06T13:29:44;99235.13;;;11.63;66.68
17615;BME280;8926;49.720;6.576;2022-11-06T13:32:14;99227.25;;;11.63;66.50
17615;BME280;8926;49.720;6.576;2022-11-06T13:34:42;99230.81;;;11.62;66.79
17615;BME280;8926;49.720;6.576;2022-11-06T13:37:15;99224.84;;;11.60;66.77
17615;BME280;8926;49.720;6.576;2022-11-06T13:39:45;99208.22;;;11.61;67.21
17615;BME280;8926;49.720;6.576;2022-11-06T13:42:22;99213.25;;;11.64;66.33
17615;BME280;8926;49.720;6.576;2022-11-06T13:44:49;99213.25;;;11.64;66.70
17615;BME280;8926;49.720;6.576;2022-11-06T13:47:20;99208.94;;;11.63;66.61
17615;BME280;8926;49.720;6.576;2022-11-06T13:50:03;99212.72;;;11.59;66.09
17615;BME280;8926;49.720;6.576;2022-11-06T13:58:20;99226.84;;;11.43;66.13
17615;BME280;8926;49.720;6.576;2022-11-06T14:01:03;99233.75;;;11.32;66.30
17615;BME280;8926;49.720;6.576;2022-11-06T14:06:22;99231.44;;;11.27;66.89
17615;BME280;8926;49.720;6.576;2022-11-06T14:09:05;99229.78;;;11.26;67.06
17615;BME280;8926;49.720;6.576;2022-11-06T14:11:39;99218.59;;;11.24;66.87
17615;BME280;8926;49.720;6.576;2022-11-06T14:14:11;99202.16;;;11.22;67.31
17615;BME280;8926;49.720;6.576;2022-11-06T14:16:41;99192.63;;;11.21;67.90
17615;BME280;8926;49.720;6.576;2022-11-06T14:19:22;99196.81;;;11.23;67.84
17615;BME280;8926;49.720;6.576;2022-11-06T14:21:54;99200.28;;;11.24;67.83
17615;BME280;8926;49.720;6.576;2022-11-06T14:24:40;99203.84;;;11.23;67.74
17615;BME280;8926;49.720;6.576;2022-11-06T14:30:02;99181.69;;;11.16;68.68
17615;BME280;8926;49.720;6.576;2022-11-06T14:32:37;99187.50;;;11.19;68.45
17615;BME280;8926;49.720;6.576;2022-11-06T14:40:34;99205.91;;;11.18;68.74
17615;BME280;8926;49.720;6.576;2022-11-06T14:43:00;99200.09;;;11.14;68.87
17615;BME280;8926;49.720;6.576;2022-11-06T14:45:35;99210.75;;;11.11;69.20
17615;BME280;8926;49.720;6.576;2022-11-06T14:48:00;99197.16;;;11.06;69.23
17615;BME280;8926;49.720;6.576;2022-11-06T14:50:31;99188.38;;;11.07;69.26
17615;BME280;8926;49.720;6.576;2022-11-06T14:53:11;99189.41;;;11.05;69.53
17615;BME280;8926;49.720;6.576;2022-11-06T14:55:45;99182.50;;;11.04;69.65